Time;durP1;ratioP1;P1;durP2;ratioP2;P2;SDS_P1;SDS_P2;PMS_P1;PMS_P2;Temp;Humidity;BMP_temperature;BMP_pressure;BME280_temperature;BME280_humidity;BME280_pressure;Samples;Min_cycle;Max_cycle;Signal;HPM_P1;HPM_P2
2022/12/04 00:01:53;;;;;;;68.40;33.95;;;;;;;0.17;91.92;101735.88;5030806;28;20455;-49
2022/12/04 00:04:18;;;;;;;69.32;34.13;;;;;;;0.17;91.89;101735.00;5031917;28;20029;-50
2022/12/04 00:06:43;;;;;;;56.83;32.28;;;;;;;0.17;91.71;101740.25;5031386;28;20464;-50
2022/12/04 00:09:09;;;;;;;63.70;32.20;;;;;;;0.18;91.77;101732.38;5030934;28;20025;-48
2022/12/04 00:11:34;;;;;;;69.70;34.10;;;;;;;0.17;91.65;101732.41;5031747;28;20030;-49
2022/12/04 00:14:00;;;;;;;65.78;32.60;;;;;;;0.17;91.97;101735.88;5031152;28;20029;-50
2022/12/04 00:16:30;;;;;;;63.58;32.67;;;;;;;0.16;91.88;101728.06;5031447;28;20033;-51
2022/12/04 00:18:56;;;;;;;65.03;33.05;;;;;;;0.17;92.02;101729.78;5030964;28;20065;-50
2022/12/04 00:21:23;;;;;;;65.78;34.38;;;;;;;0.17;91.80;101728.03;5031549;28;20080;-53
2022/12/04 00:23:48;;;;;;;66.68;34.13;;;;;;;0.18;92.45;101727.16;5028322;28;20049;-50
2022/12/04 00:26:23;;;;;;;67.90;33.85;;;;;;;0.18;92.15;101727.16;5031127;28;20037;-50
2022/12/04 00:28:50;;;;;;;63.63;33.83;;;;;;;0.17;92.12;101730.63;5031234;28;20112;-51
2022/12/04 00:31:19;;;;;;;59.03;33.47;;;;;;;0.15;92.22;101724.59;5033073;28;20022;-51
2022/12/04 00:33:44;;;;;;;67.38;33.45;;;;;;;0.16;92.31;101721.06;5022494;28;20025;-50
2022/12/04 00:36:12;;;;;;;67.38;34.50;;;;;;;0.16;91.93;101722.84;5031695;28;20536;-50
2022/12/04 00:38:39;;;;;;;65.47;33.33;;;;;;;0.16;92.13;101721.06;5026200;28;20060;-51
2022/12/04 00:41:06;;;;;;;67.07;32.17;;;;;;;0.17;92.20;101727.19;5030366;28;20444;-51
2022/12/04 00:43:32;;;;;;;60.97;31.55;;;;;;;0.18;92.11;101731.50;5031263;28;20041;-49
2022/12/04 00:45:57;;;;;;;72.53;34.70;;;;;;;0.18;92.09;101719.31;5030864;28;20026;-51
2022/12/04 00:48:23;;;;;;;71.40;34.95;;;;;;;0.18;91.91;101721.94;5031506;28;20020;-54
2022/12/04 00:50:49;;;;;;;62.50;32.53;;;;;;;0.17;91.91;101721.94;5030257;28;20041;-49
2022/12/04 00:53:14;;;;;;;64.63;32.10;;;;;;;0.16;92.36;101718.47;5030939;28;20033;-50
2022/12/04 00:55:41;;;;;;;64.43;34.80;;;;;;;0.16;92.33;101718.47;5031262;28;20018;-51
2022/12/04 00:58:07;;;;;;;61.72;34.22;;;;;;;0.16;91.97;101722.84;5031376;28;20030;-50
2022/12/04 01:00:37;;;;;;;62.92;33.05;;;;;;;0.17;91.98;101717.56;5030395;28;20035;-50
2022/12/04 01:03:04;;;;;;;66.25;34.90;;;;;;;0.17;91.93;101717.56;5030924;28;20076;-52
2022/12/04 01:05:29;;;;;;;63.53;33.35;;;;;;;0.17;91.92;101720.19;5030984;28;20057;-51
2022/12/04 01:07:55;;;;;;;62.03;32.15;;;;;;;0.16;92.32;101728.06;5033526;28;20502;-51
2022/12/04 01:10:20;;;;;;;63.95;33.03;;;;;;;0.15;92.10;101737.66;5033911;28;20048;-50
2022/12/04 01:12:49;;;;;;;63.42;33.92;;;;;;;0.14;91.90;101729.84;5034647;28;20380;-49
2022/12/04 01:15:14;;;;;;;64.93;33.88;;;;;;;0.15;92.12;101734.16;5034525;28;20558;-50
2022/12/04 01:17:40;;;;;;;62.33;33.30;;;;;;;0.13;92.21;101723.78;5034218;28;20105;-51
2022/12/04 01:20:06;;;;;;;64.82;33.50;;;;;;;0.13;92.13;101733.34;5040316;28;20043;-52
2022/12/04 01:22:31;;;;;;;57.80;31.75;;;;;;;0.13;91.90;101730.72;5034134;28;20116;-50
2022/12/04 01:24:56;;;;;;;61.55;33.42;;;;;;;0.14;92.24;101735.91;5033901;28;20090;-52
2022/12/04 01:27:22;;;;;;;63.20;33.45;;;;;;;0.15;92.64;101732.44;5026566;28;20037;-54
2022/12/04 01:29:48;;;;;;;59.22;31.80;;;;;;;0.16;92.41;101738.50;5033444;28;20029;-49
2022/12/04 01:32:13;;;;;;;66.72;34.60;;;;;;;0.16;92.41;101735.91;5034684;28;20387;-51
2022/12/04 01:34:38;;;;;;;63.00;33.80;;;;;;;0.17;92.09;101732.41;5043879;28;20514;-53
2022/12/04 01:37:03;;;;;;;63.97;33.30;;;;;;;0.18;92.30;101739.34;5033950;28;20021;-50
2022/12/04 01:39:29;;;;;;;64.68;33.50;;;;;;;0.17;92.57;101740.25;5033928;28;20052;-50
2022/12/04 01:41:54;;;;;;;68.28;33.78;;;;;;;0.17;92.53;101730.63;5033935;28;20026;-53
2022/12/04 01:44:25;;;;;;;64.03;33.25;;;;;;;0.17;92.18;101727.19;5033586;28;20032;-51
2022/12/04 01:47:00;;;;;;;64.18;33.67;;;;;;;0.18;92.14;101732.38;5034028;28;20026;-49
2022/12/04 01:49:30;;;;;;;60.70;33.78;;;;;;;0.17;92.29;101721.94;5033728;28;20040;-51
2022/12/04 01:51:59;;;;;;;61.88;34.03;;;;;;;0.16;92.57;101720.22;5033893;28;20360;-51
2022/12/04 01:54:29;;;;;;;61.75;33.42;;;;;;;0.17;92.08;101724.56;5033656;28;20029;-49
2022/12/04 01:57:06;;;;;;;59.45;32.90;;;;;;;0.17;92.40;101714.13;5024353;28;20052;-50
2022/12/04 01:59:37;;;;;;;63.78;34.80;;;;;;;0.15;92.20;101719.38;5033732;28;20026;-51
2022/12/04 02:02:13;;;;;;;64.15;32.28;;;;;;;0.15;92.20;101716.75;5033094;28;20033;-51
2022/12/04 02:04:39;;;;;;;62.80;33.35;;;;;;;0.15;92.21;101716.75;5033654;28;20476;-51
2022/12/04 02:07:04;;;;;;;56.53;31.67;;;;;;;0.15;92.00;101715.88;5033576;28;20156;-49
2022/12/04 02:09:31;;;;;;;62.88;33.75;;;;;;;0.15;92.60;101718.47;5034758;28;20108;-52
2022/12/04 02:12:14;;;;;;;59.40;32.03;;;;;;;0.13;92.18;101715.94;5033674;28;20029;-51
2022/12/04 02:14:58;;;;;;;61.28;33.95;;;;;;;0.14;92.38;101716.78;5036185;28;20028;-51
2022/12/04 02:17:38;;;;;;;62.60;33.72;;;;;;;0.13;92.37;101710.72;5033807;28;20127;-51
2022/12/04 02:20:08;;;;;;;64.20;33.53;;;;;;;0.11;92.26;101709.84;5032849;28;20036;-52
2022/12/04 02:22:52;;;;;;;60.25;33.00;;;;;;;0.14;92.55;101715.03;5026659;28;20085;-51
2022/12/04 02:25:26;;;;;;;63.10;33.17;;;;;;;0.11;91.97;101706.38;5043408;28;20033;-50
2022/12/04 02:28:09;;;;;;;59.10;31.70;;;;;;;0.12;92.44;101714.19;5037114;28;20123;-48
2022/12/04 02:30:38;;;;;;;60.08;32.80;;;;;;;0.13;92.15;101715.03;5026770;28;20034;-50
2022/12/04 02:33:18;;;;;;;65.10;32.47;;;;;;;0.15;92.71;101713.25;5033185;28;20025;-49
2022/12/04 02:35:48;;;;;;;62.13;33.40;;;;;;;0.12;92.23;101703.75;5033472;28;20041;-48
2022/12/04 02:38:25;;;;;;;59.42;33.08;;;;;;;0.12;92.39;101714.19;5032395;28;20017;-49
2022/12/04 02:40:57;;;;;;;64.65;34.20;;;;;;;0.12;92.13;101714.19;5032667;28;20087;-51
2022/12/04 02:43:38;;;;;;;65.10;35.22;;;;;;;0.13;92.14;101710.72;5033354;28;20022;-48
2022/12/04 02:46:19;;;;;;;59.60;32.70;;;;;;;0.11;92.04;101702.00;5041051;28;20025;-50
2022/12/04 02:48:48;;;;;;;61.65;33.40;;;;;;;0.08;92.36;101711.66;5026077;28;20099;-49
2022/12/04 02:51:16;;;;;;;61.65;33.25;;;;;;;0.08;92.57;101709.91;5032260;28;20486;-48
2022/12/04 02:53:51;;;;;;;61.30;34.08;;;;;;;0.06;92.43;101703.84;5032635;28;20064;-48
2022/12/04 02:56:21;;;;;;;63.10;33.47;;;;;;;0.07;92.52;101704.75;5033087;28;20025;-49
2022/12/04 02:58:56;;;;;;;55.45;33.15;;;;;;;0.07;92.61;101696.91;5034406;28;20041;-51
2022/12/04 03:01:28;;;;;;;67.47;34.17;;;;;;;0.07;92.72;101697.75;5033287;28;20025;-53
2022/12/04 03:04:08;;;;;;;64.50;34.67;;;;;;;0.11;92.34;101701.16;5032580;28;20033;-48
2022/12/04 03:06:38;;;;;;;61.13;34.60;;;;;;;0.09;92.21;101693.34;5033204;28;20017;-48
2022/12/04 03:09:10;;;;;;;;;;;;;;;0.15;92.49;101695.84;5032981;28;20075;-50
2022/12/04 03:11:39;;;;;;;59.50;32.45;;;;;;;0.10;91.77;101700.31;5025124;28;19952;-49
2022/12/04 03:14:11;;;;;;;;;;;;;;;0.16;92.20;101697.56;5039091;28;20108;-48
2022/12/04 03:16:40;;;;;;;59.38;32.65;;;;;;;0.11;92.41;101701.16;5032104;28;19913;-48
2022/12/04 03:19:09;;;;;;;58.40;33.33;;;;;;;0.11;92.34;101696.78;5032656;28;20040;-50
2022/12/04 03:21:38;;;;;;;59.80;33.00;;;;;;;0.10;92.05;101696.81;5031920;28;20442;-48
2022/12/04 03:24:16;;;;;;;65.00;35.90;;;;;;;0.08;92.46;101699.47;5032379;28;20044;-49
2022/12/04 03:26:46;;;;;;;64.28;34.45;;;;;;;0.08;92.34;101706.44;5026637;28;20059;-49
2022/12/04 03:29:21;;;;;;;64.40;35.28;;;;;;;0.09;92.49;101701.19;5032964;28;20021;-51
2022/12/04 03:32:33;;;;;;;59.65;34.22;;;;;;;0.09;92.52;101698.56;5029690;28;20090;-51
2022/12/04 03:35:14;;;;;;;59.33;33.33;;;;;;;0.10;92.23;101699.44;5029155;28;20049;-52
2022/12/04 03:37:59;;;;;;;63.08;34.60;;;;;;;0.10;92.29;101691.59;5019906;28;20479;-49
2022/12/04 03:40:38;;;;;;;64.47;35.30;;;;;;;0.08;92.37;101689.00;5023600;28;20069;-51
2022/12/04 03:43:13;;;;;;;;;;;;;;;0.11;92.39;101691.56;5030361;28;20154;-52
2022/12/04 03:45:47;;;;;;;60.50;33.38;;;;;;;0.08;92.13;101688.16;5027420;28;19909;-51
2022/12/04 03:48:30;;;;;;;64.60;34.65;;;;;;;0.08;92.66;101682.94;5032254;28;20021;-50
2022/12/04 03:51:06;;;;;;;65.28;34.75;;;;;;;0.08;92.22;101680.31;5041703;28;20022;-49
2022/12/04 03:53:38;;;;;;;64.22;34.95;;;;;;;0.07;92.14;101684.69;5031064;28;20045;-50
2022/12/04 03:56:08;;;;;;;58.95;34.70;;;;;;;0.09;92.47;101688.13;5019840;28;20479;-50
2022/12/04 03:58:36;;;;;;;61.65;35.25;;;;;;;0.10;92.72;101686.38;5032491;28;20081;-49
2022/12/04 04:01:06;;;;;;;60.80;35.20;;;;;;;0.11;92.50;101685.50;5025319;28;20453;-52
2022/12/04 04:03:34;;;;;;;;;;;;;;;0.15;92.03;101690.63;5032085;28;20361;-50
2022/12/04 04:06:08;;;;;;;64.95;34.33;;;;;;;0.11;92.43;101682.88;5033492;28;19944;-51
2022/12/04 04:08:37;;;;;;;60.13;33.30;;;;;;;0.10;92.27;101688.97;5029323;28;20087;-51
2022/12/04 04:11:24;;;;;;;64.85;34.97;;;;;;;0.11;92.36;101688.09;5018213;28;20117;-51
2022/12/04 04:25:17;;;;;;;63.97;36.53;;;;;;;0.07;92.66;101684.69;5025283;28;20510;-51
2022/12/04 04:27:51;;;;;;;67.07;35.72;;;;;;;0.10;92.21;101681.16;5032667;28;20053;-50
2022/12/04 04:30:16;;;;;;;61.35;35.30;;;;;;;0.10;92.43;101686.38;5033092;28;20021;-51
2022/12/04 04:32:48;;;;;;;66.35;35.33;;;;;;;0.11;92.80;101685.50;5033092;28;20083;-50
2022/12/04 04:35:20;;;;;;;66.90;36.75;;;;;;;0.10;92.26;101682.03;5031841;28;20030;-51
2022/12/04 04:38:02;;;;;;;64.30;35.42;;;;;;;0.12;92.42;101677.63;5032715;28;20036;-50
2022/12/04 04:40:49;;;;;;;62.08;35.60;;;;;;;0.09;92.30;101680.28;5016533;28;20390;-52
2022/12/04 04:43:28;;;;;;;65.97;35.95;;;;;;;0.09;92.39;101682.91;5038889;28;20036;-50
2022/12/04 04:46:01;;;;;;;63.88;36.53;;;;;;;0.08;92.47;101682.94;5039377;28;20033;-51
2022/12/04 04:48:31;;;;;;;62.10;34.80;;;;;;;0.08;92.44;101682.94;5039069;28;20040;-49
2022/12/04 04:50:58;;;;;;;66.55;36.22;;;;;;;0.07;92.40;101679.47;5038656;28;20619;-51
2022/12/04 04:53:29;;;;;;;64.22;35.25;;;;;;;0.08;92.61;101682.94;5052960;28;20087;-50
2022/12/04 04:55:55;;;;;;;60.22;34.90;;;;;;;0.07;92.25;101682.09;5034116;28;20657;-49
2022/12/04 04:58:21;;;;;;;68.22;35.47;;;;;;;0.07;92.68;101683.84;5039659;28;20383;-51
2022/12/04 05:00:57;;;;;;;63.28;35.50;;;;;;;0.08;92.95;101686.41;5039162;28;20033;-52
2022/12/04 05:03:23;;;;;;;65.35;36.17;;;;;;;0.07;92.51;101689.91;5039119;28;20037;-51
2022/12/04 05:05:49;;;;;;;64.47;36.90;;;;;;;0.10;92.27;101691.59;5049527;28;20219;-50
2022/12/04 05:08:14;;;;;;;64.10;34.95;;;;;;;0.10;92.70;101704.66;5030915;28;20120;-51
2022/12/04 05:10:39;;;;;;;64.50;35.67;;;;;;;0.11;92.54;101695.94;5039139;28;20450;-49
2022/12/04 05:13:04;;;;;;;63.63;35.33;;;;;;;0.11;92.46;101695.94;5039628;28;20037;-50
2022/12/04 05:15:30;;;;;;;62.85;36.17;;;;;;;0.10;92.84;101689.88;5034326;28;20038;-50
2022/12/04 05:17:55;;;;;;;66.18;35.50;;;;;;;0.10;92.49;101689.88;5041228;28;20099;-51
2022/12/04 05:20:20;;;;;;;68.72;36.25;;;;;;;0.11;92.99;101688.94;5040510;28;20037;-50
2022/12/04 05:22:46;;;;;;;64.15;34.20;;;;;;;0.12;92.77;101692.44;5038089;28;20025;-49
2022/12/04 05:25:11;;;;;;;66.03;36.35;;;;;;;0.11;93.09;101691.56;5038977;28;20025;-51
2022/12/04 05:27:36;;;;;;;61.92;35.55;;;;;;;0.12;93.11;101695.06;5039095;28;20518;-50
2022/12/04 05:30:03;;;;;;;64.30;36.38;;;;;;;0.12;92.95;101692.44;5038954;28;20025;-50
2022/12/04 05:32:29;;;;;;;66.63;36.33;;;;;;;0.11;92.98;101688.94;5030372;28;20041;-51
2022/12/04 05:34:55;;;;;;;69.35;36.10;;;;;;;0.10;92.64;101692.47;5038192;28;20040;-51
2022/12/04 05:37:22;;;;;;;64.70;36.35;;;;;;;0.10;93.04;101687.25;5038165;28;20104;-50
2022/12/04 05:39:47;;;;;;;62.75;35.88;;;;;;;0.12;92.71;101689.84;5039002;28;20035;-50
2022/12/04 05:42:13;;;;;;;63.80;35.97;;;;;;;0.13;92.78;101688.94;5039038;28;20026;-50
2022/12/04 05:44:39;;;;;;;66.88;36.15;;;;;;;0.14;92.93;101682.81;5038951;28;20060;-51
2022/12/04 05:47:04;;;;;;;61.50;35.15;;;;;;;0.13;93.07;101681.09;5039355;28;20049;-52
2022/12/04 05:49:31;;;;;;;65.22;36.08;;;;;;;0.12;92.71;101672.41;5038835;28;20482;-53
2022/12/04 05:51:56;;;;;;;61.28;36.35;;;;;;;0.14;93.18;101680.22;5042489;28;20068;-49
2022/12/04 05:54:22;;;;;;;61.25;35.35;;;;;;;0.16;93.21;101667.97;5035985;28;20104;-51
2022/12/04 05:56:47;;;;;;;61.88;36.03;;;;;;;0.15;92.95;101676.69;5029034;28;20033;-50
2022/12/04 05:59:13;;;;;;;64.45;35.25;;;;;;;0.13;93.04;101668.91;5036096;28;20056;-50
2022/12/04 06:01:39;;;;;;;66.00;37.58;;;;;;;0.15;92.94;101672.34;5035916;28;20053;-50
2022/12/04 06:04:04;;;;;;;69.88;36.50;;;;;;;0.14;93.01;101670.63;5036195;28;20391;-52
2022/12/04 06:06:30;;;;;;;65.95;37.10;;;;;;;0.15;92.84;101661.00;5045408;28;20029;-49
2022/12/04 06:08:57;;;;;;;61.47;35.53;;;;;;;0.14;93.19;101665.38;5035092;28;20487;-49
2022/12/04 06:11:26;;;;;;;66.63;35.90;;;;;;;0.16;93.56;101657.53;5036106;28;20024;-50
2022/12/04 06:13:51;;;;;;;61.33;34.83;;;;;;;0.16;93.45;101658.38;5035275;28;20032;-50
2022/12/04 06:16:20;;;;;;;63.42;35.13;;;;;;;0.15;93.24;101659.28;5029028;28;20030;-51
2022/12/04 06:18:50;;;;;;;65.53;35.30;;;;;;;0.16;92.90;101662.75;5032778;28;20032;-51
2022/12/04 06:21:16;;;;;;;61.05;34.50;;;;;;;0.14;93.08;101662.78;5035936;28;20056;-51
2022/12/04 06:23:41;;;;;;;67.13;36.38;;;;;;;0.13;93.12;101662.81;5037760;28;20067;-50
2022/12/04 06:26:07;;;;;;;64.95;35.03;;;;;;;0.14;93.17;101669.75;5043528;28;20041;-51
2022/12/04 06:28:34;;;;;;;62.45;35.45;;;;;;;0.13;93.32;101666.28;5035428;28;20033;-49
2022/12/04 06:31:02;;;;;;;68.65;37.97;;;;;;;0.16;93.31;101666.22;5036120;28;20384;-49
2022/12/04 06:33:27;;;;;;;65.45;37.58;;;;;;;0.15;93.91;101677.56;5034598;28;20495;-51
2022/12/04 06:36:05;;;;;;;63.30;36.55;;;;;;;0.16;93.16;101666.22;5035957;28;20034;-50
2022/12/04 06:38:30;;;;;;;66.22;35.90;;;;;;;0.16;93.75;101671.44;5037562;28;20033;-51
2022/12/04 06:40:56;;;;;;;63.53;37.00;;;;;;;0.17;93.44;101669.69;5034381;28;20108;-49
2022/12/04 06:43:22;;;;;;;66.97;37.65;;;;;;;0.19;93.59;101673.13;5034797;28;20061;-52
2022/12/04 06:45:47;;;;;;;66.28;36.75;;;;;;;0.19;93.73;101670.53;5035296;28;20033;-52
2022/12/04 06:48:12;;;;;;;66.22;35.58;;;;;;;0.18;93.44;101667.06;5034372;28;20013;-53
2022/12/04 06:50:38;;;;;;;63.90;35.47;;;;;;;0.20;93.71;101679.22;5033109;28;20037;-49
2022/12/04 06:53:03;;;;;;;69.65;37.70;;;;;;;0.18;93.68;101669.69;5036911;28;20063;-50
2022/12/04 06:55:28;;;;;;;63.72;35.15;;;;;;;0.19;93.77;101680.97;5048068;28;20033;-50
2022/12/04 06:57:54;;;;;;;63.83;36.50;;;;;;;0.18;93.67;101680.13;5029391;28;20033;-52
2022/12/04 07:00:19;;;;;;;60.08;35.33;;;;;;;0.18;93.43;101682.75;5034418;28;20014;-50
2022/12/04 07:02:44;;;;;;;63.30;34.78;;;;;;;0.18;93.58;101685.34;5034273;28;20037;-51
2022/12/04 07:05:10;;;;;;;62.75;35.63;;;;;;;0.19;93.71;101691.44;5032956;28;20037;-50
2022/12/04 07:07:35;;;;;;;66.03;36.40;;;;;;;0.20;93.45;101694.88;5032748;28;20107;-51
2022/12/04 07:10:02;;;;;;;65.20;37.45;;;;;;;0.20;93.72;101690.56;5033170;28;20029;-52
2022/12/04 07:12:28;;;;;;;65.05;36.80;;;;;;;0.18;93.85;101690.56;5033186;28;20029;-51
2022/12/04 07:14:53;;;;;;;65.95;35.15;;;;;;;0.19;93.63;101694.03;5033241;28;20033;-49
2022/12/04 07:17:18;;;;;;;65.35;35.67;;;;;;;0.19;93.43;101696.66;5024624;28;20545;-51
2022/12/04 07:19:44;;;;;;;64.78;36.67;;;;;;;0.17;93.65;101694.06;5030898;28;20044;-51
2022/12/04 07:22:09;;;;;;;62.75;34.58;;;;;;;0.18;93.61;101695.81;5029769;28;21196;-53
2022/12/04 07:24:36;;;;;;;61.08;35.88;;;;;;;0.18;93.97;101710.59;5037985;28;20514;-51
2022/12/04 07:27:02;;;;;;;59.92;33.72;;;;;;;0.18;93.76;101707.97;5029642;28;20447;-51
2022/12/04 07:29:27;;;;;;;60.35;35.63;;;;;;;0.20;94.03;101705.34;5031309;28;20064;-51
2022/12/04 07:31:52;;;;;;;60.80;34.63;;;;;;;0.19;93.94;101707.09;5031009;28;20025;-50
2022/12/04 07:34:17;;;;;;;60.95;34.95;;;;;;;0.19;93.47;101704.50;5027527;28;20041;-49
2022/12/04 07:36:43;;;;;;;65.32;34.67;;;;;;;0.18;93.65;101707.97;5029882;28;20034;-51
2022/12/04 07:39:08;;;;;;;61.05;35.00;;;;;;;0.16;93.54;101700.16;5024626;28;20048;-49
2022/12/04 07:41:34;;;;;;;55.10;32.40;;;;;;;0.17;93.72;101701.91;5029215;28;20037;-50
2022/12/04 07:43:59;;;;;;;59.42;33.08;;;;;;;0.16;93.92;101705.41;5028629;28;20041;-50
2022/12/04 07:46:26;;;;;;;60.22;34.58;;;;;;;0.18;94.34;101707.97;5029882;28;20026;-54
2022/12/04 07:48:54;;;;;;;54.90;33.08;;;;;;;0.17;93.75;101709.75;5027137;28;20552;-54
2022/12/04 07:51:22;;;;;;;55.42;33.40;;;;;;;0.18;93.78;101715.81;5029751;28;20582;-50
2022/12/04 07:53:49;;;;;;;56.67;34.73;;;;;;;0.18;93.68;101719.31;5031577;28;20049;-50
2022/12/04 07:56:16;;;;;;;55.20;33.60;;;;;;;0.21;93.70;101714.91;5031767;28;20087;-50
2022/12/04 07:58:42;;;;;;;57.35;33.30;;;;;;;0.21;94.07;101720.13;5031399;28;20113;-54
2022/12/04 08:01:11;;;;;;;56.42;33.80;;;;;;;0.23;94.01;101718.34;5027922;28;20558;-51
2022/12/04 08:03:38;;;;;;;54.95;31.90;;;;;;;0.22;93.49;101716.63;5028073;28;20046;-51
2022/12/04 08:06:05;;;;;;;55.90;32.75;;;;;;;0.24;93.40;101720.09;5028828;28;20049;-51
2022/12/04 08:08:30;;;;;;;55.50;32.88;;;;;;;0.24;93.59;101720.09;5029331;28;20038;-51
2022/12/04 08:10:57;;;;;;;57.28;32.35;;;;;;;0.25;93.65;101716.56;5027079;28;20026;-50
2022/12/04 08:13:22;;;;;;;55.67;32.92;;;;;;;0.26;93.39;101721.75;5026184;28;20708;-51
2022/12/04 08:15:47;;;;;;;52.65;31.85;;;;;;;0.27;94.05;101726.09;5026453;28;20827;-51
2022/12/04 08:18:13;;;;;;;53.42;32.38;;;;;;;0.29;93.76;101726.06;5027865;28;20056;-51
2022/12/04 08:20:38;;;;;;;52.58;31.98;;;;;;;0.30;93.88;101727.78;5027669;28;20030;-50
2022/12/04 08:23:04;;;;;;;55.00;32.90;;;;;;;0.31;93.84;101721.69;5024811;28;20053;-50
2022/12/04 08:25:29;;;;;;;55.33;33.33;;;;;;;0.33;93.13;101732.94;5027039;28;20029;-50
2022/12/04 08:27:54;;;;;;;52.05;31.30;;;;;;;0.33;93.28;101730.34;5026392;28;20665;-51
2022/12/04 08:30:20;;;;;;;49.38;29.60;;;;;;;0.33;93.45;101732.94;5028123;28;20041;-51
2022/12/04 08:32:45;;;;;;;53.05;31.27;;;;;;;0.34;93.10;101738.16;5029380;28;20025;-52
2022/12/04 08:35:10;;;;;;;48.92;29.90;;;;;;;0.35;93.24;101726.81;5019842;28;20051;-52
2022/12/04 08:37:35;;;;;;;49.75;29.17;;;;;;;0.38;93.42;101731.09;5026476;28;20112;-50
2022/12/04 08:40:01;;;;;;;49.97;30.48;;;;;;;0.38;93.28;101725.88;5027232;28;20550;-51
2022/12/04 08:42:26;;;;;;;49.08;29.95;;;;;;;0.40;93.23;101724.13;5031642;28;20059;-49
2022/12/04 08:44:52;;;;;;;47.42;28.23;;;;;;;0.41;92.86;101728.44;5034592;28;20387;-49
2022/12/04 08:47:17;;;;;;;48.97;28.00;;;;;;;0.40;92.96;101720.63;5029331;28;20128;-51
2022/12/04 08:49:42;;;;;;;49.72;29.58;;;;;;;0.41;93.03;101717.13;5028558;28;20499;-51
2022/12/04 08:52:08;;;;;;;42.83;27.85;;;;;;;0.43;92.59;101718.81;5029710;28;20387;-53
2022/12/04 08:54:33;;;;;;;42.28;25.95;;;;;;;0.45;92.81;101724.88;5030378;28;20094;-51
2022/12/04 08:56:58;;;;;;;45.20;27.20;;;;;;;0.45;92.74;101721.38;5027564;28;20033;-52
2022/12/04 08:59:23;;;;;;;43.25;26.50;;;;;;;0.45;92.33;101714.44;5027745;28;20033;-50
2022/12/04 09:01:50;;;;;;;42.92;27.80;;;;;;;0.46;92.50;101720.50;5027639;28;20029;-53
2022/12/04 09:04:16;;;;;;;42.22;26.38;;;;;;;0.47;92.56;101711.78;5031727;28;21349;-55
2022/12/04 09:06:41;;;;;;;43.17;25.92;;;;;;;0.50;91.71;101711.69;5029423;28;20021;-53
2022/12/04 09:09:06;;;;;;;41.42;26.83;;;;;;;0.50;91.70;101719.53;5023218;28;20518;-51
2022/12/04 09:11:32;;;;;;;42.70;26.88;;;;;;;0.52;91.76;101712.56;5027525;28;20691;-51
2022/12/04 09:13:59;;;;;;;43.92;26.17;;;;;;;0.51;91.99;101709.06;5026175;28;23480;-50
2022/12/04 09:16:25;;;;;;;40.38;26.58;;;;;;;0.54;92.20;101715.97;5026919;28;20033;-54
2022/12/04 09:18:50;;;;;;;42.97;26.27;;;;;;;0.55;92.08;101721.19;5026749;28;20029;-54
2022/12/04 09:21:18;;;;;;;40.28;23.63;;;;;;;0.58;91.14;101725.47;5026420;28;20075;-53
2022/12/04 09:23:43;;;;;;;42.13;25.98;;;;;;;0.57;91.28;101723.78;5027106;28;20471;-52
2022/12/04 09:26:21;;;;;;;41.55;24.33;;;;;;;0.61;91.57;101729.78;5026705;28;20037;-53
2022/12/04 09:28:47;;;;;;;38.75;24.90;;;;;;;0.62;91.67;101726.28;5028202;28;20032;-54
2022/12/04 09:31:13;;;;;;;43.67;26.00;;;;;;;0.64;91.28;101732.34;5029834;28;20727;-52
2022/12/04 09:33:39;;;;;;;42.08;25.27;;;;;;;0.65;91.12;101734.94;5029461;28;20032;-55
2022/12/04 09:36:04;;;;;;;37.70;23.23;;;;;;;0.67;91.15;101737.50;5026677;28;20060;-50
2022/12/04 09:38:30;;;;;;;39.22;22.95;;;;;;;0.70;91.10;101734.81;5027854;28;20025;-50
2022/12/04 09:41:22;;;;;;;40.80;24.50;;;;;;;0.72;91.37;101728.66;5027981;28;20116;-51
2022/12/04 09:43:50;;;;;;;38.03;24.35;;;;;;;0.73;91.31;101724.28;5020088;28;20064;-50
2022/12/04 09:46:22;;;;;;;39.20;24.33;;;;;;;0.74;91.28;101715.56;5017864;28;20072;-51
2022/12/04 09:48:48;;;;;;;40.38;24.42;;;;;;;0.76;90.99;101720.75;5031550;28;20290;-53
2022/12/04 09:51:18;;;;;;;37.17;23.33;;;;;;;0.77;91.06;101728.56;5024242;28;20053;-51
2022/12/04 09:54:01;;;;;;;38.85;23.40;;;;;;;0.80;91.09;101731.13;5035244;28;20039;-51
2022/12/04 09:56:28;;;;;;;38.33;23.65;;;;;;;0.80;90.91;101730.25;5028008;28;20069;-51
2022/12/04 09:59:14;;;;;;;38.17;23.55;;;;;;;0.82;90.71;101733.72;5027594;28;20029;-53
2022/12/04 10:01:52;;;;;;;34.83;22.42;;;;;;;0.82;90.44;101738.94;5029798;28;20537;-51
2022/12/04 10:04:18;;;;;;;35.60;21.45;;;;;;;0.82;89.84;101744.19;5035959;28;20573;-52
2022/12/04 10:06:46;;;;;;;37.65;21.80;;;;;;;0.83;89.20;101741.50;5031869;28;20036;-51
2022/12/04 10:09:49;;;;;;;32.45;21.10;;;;;;;0.83;88.94;101733.66;5030420;28;20507;-51
2022/12/04 10:12:56;;;;;;;36.83;22.38;;;;;;;0.79;88.73;101734.63;5029204;28;20583;-52
2022/12/04 10:15:33;;;;;;;35.17;21.35;;;;;;;0.77;88.94;101735.53;5003407;28;20030;-50
2022/12/04 10:18:26;;;;;;;32.75;20.23;;;;;;;0.76;89.34;101733.84;5010237;28;20036;-50
2022/12/04 10:20:57;;;;;;;31.20;20.08;;;;;;;0.74;88.46;101726.88;5026618;28;20061;-53
2022/12/04 10:23:40;;;;;;;33.17;21.00;;;;;;;0.70;89.15;101716.50;5018732;28;20074;-50
2022/12/04 10:26:13;;;;;;;32.85;20.67;;;;;;;0.69;88.69;101720.88;5028391;28;20045;-51
2022/12/04 10:28:42;;;;;;;33.05;20.50;;;;;;;0.67;88.59;101717.44;5028825;28;20472;-50
2022/12/04 10:31:13;;;;;;;32.67;20.77;;;;;;;0.68;88.78;101721.78;5029199;28;20542;-50
2022/12/04 10:34:00;;;;;;;33.78;20.83;;;;;;;0.68;88.95;101724.41;5028144;28;20021;-50
2022/12/04 10:36:31;;;;;;;34.85;21.20;;;;;;;0.62;89.45;101716.69;5021954;28;20141;-50
2022/12/04 10:39:14;;;;;;;33.83;21.17;;;;;;;0.65;89.47;101728.81;5019184;28;20084;-51
2022/12/04 10:42:00;;;;;;;32.58;20.95;;;;;;;0.67;89.65;101729.66;5028147;28;20574;-49
2022/12/04 10:44:26;;;;;;;32.10;20.35;;;;;;;0.67;89.96;101732.28;5022317;28;20076;-50
2022/12/04 10:46:59;;;;;;;35.97;20.58;;;;;;;0.70;90.13;101737.41;5020957;28;20948;-50
2022/12/04 10:49:27;;;;;;;35.40;20.73;;;;;;;0.68;89.54;101732.25;5028302;28;20048;-50
2022/12/04 10:51:53;;;;;;;31.85;21.40;;;;;;;0.67;89.85;101725.28;5030207;28;20034;-53
2022/12/04 10:54:30;;;;;;;33.60;21.23;;;;;;;0.69;89.82;101726.13;5030725;28;20140;-51
2022/12/04 10:56:58;;;;;;;35.03;21.08;;;;;;;0.67;89.46;101733.13;5028610;28;20045;-51
2022/12/04 10:59:26;;;;;;;33.17;21.80;;;;;;;0.67;89.81;101730.53;5028114;28;20036;-51
2022/12/04 11:02:02;;;;;;;32.22;20.95;;;;;;;0.67;89.30;101711.38;5030270;28;20115;-52
2022/12/04 11:04:30;;;;;;;33.90;20.80;;;;;;;0.66;89.26;101709.63;5030269;28;20095;-49
2022/12/04 11:07:02;;;;;;;35.55;21.08;;;;;;;0.64;89.56;101714.03;5030118;28;20071;-50
2022/12/04 11:09:29;;;;;;;32.00;21.13;;;;;;;0.61;89.56;101709.72;5031854;28;20029;-52
2022/12/04 11:12:05;;;;;;;34.85;21.70;;;;;;;0.61;89.80;101708.88;5025684;28;20042;-52
2022/12/04 11:14:30;;;;;;;33.80;21.48;;;;;;;0.59;89.68;101705.44;5029737;28;20371;-51
2022/12/04 11:17:05;;;;;;;33.25;21.63;;;;;;;0.59;89.77;101706.28;5024141;28;20374;-51
2022/12/04 11:19:33;;;;;;;34.50;20.63;;;;;;;0.57;89.69;101694.13;5029644;28;20025;-52
2022/12/04 11:22:19;;;;;;;31.45;20.88;;;;;;;0.62;90.11;101692.31;5027591;28;20430;-51
2022/12/04 11:24:55;;;;;;;30.17;20.40;;;;;;;0.61;90.24;101691.44;5031494;28;20037;-50
2022/12/04 11:27:33;;;;;;;31.98;19.88;;;;;;;0.62;89.89;101692.31;5030752;28;20053;-51
2022/12/04 11:30:08;;;;;;;31.95;20.63;;;;;;;0.61;89.93;101690.56;5027096;28;20013;-53
2022/12/04 11:32:34;;;;;;;31.73;21.27;;;;;;;0.61;89.70;101686.19;5031695;28;20438;-53
2022/12/04 11:35:16;;;;;;;28.48;20.20;;;;;;;0.64;90.13;101687.91;5038920;28;20108;-50
2022/12/04 11:37:49;;;;;;;30.35;20.00;;;;;;;0.64;89.77;101690.50;5031608;28;20022;-51
2022/12/04 11:40:18;;;;;;;32.05;20.48;;;;;;;0.60;89.71;101681.88;5031642;28;20083;-54
2022/12/04 11:42:58;;;;;;;33.53;21.73;;;;;;;0.64;89.89;101680.91;5031622;28;20113;-50